sensor_id;sensor_type;location;lat;lon;timestamp;pressure;altitude;pressure_sealevel;temperature;humidity
44872;BME280;30602;51.060;17.226;2023-07-20T00:02:28;100897.31;;;17.67;88.55
44872;BME280;30602;51.060;17.226;2023-07-20T00:05:51;100903.87;;;17.67;90.87
44872;BME280;30602;51.060;17.226;2023-07-20T00:09:33;100898.59;;;17.66;91.90
44872;BME280;30602;51.060;17.226;2023-07-20T00:13:52;100915.75;;;17.63;94.40
44872;BME280;30602;51.060;17.226;2023-07-20T00:17:52;100912.17;;;17.54;94.32
44872;BME280;30602;51.060;17.226;2023-07-20T00:21:57;100930.96;;;17.50;94.69
44872;BME280;30602;51.060;17.226;2023-07-20T00:26:22;100941.25;;;17.62;93.77
44872;BME280;30602;51.060;17.226;2023-07-20T00:29:53;100974.87;;;17.63;93.38
44872;BME280;30602;51.060;17.226;2023-07-20T00:33:47;100988.59;;;17.56;94.43
44872;BME280;30602;51.060;17.226;2023-07-20T00:38:00;100975.39;;;17.45;94.28
44872;BME280;30602;51.060;17.226;2023-07-20T00:41:33;100975.59;;;17.28;96.03
44872;BME280;30602;51.060;17.226;2023-07-20T00:45:07;100971.98;;;17.17;97.39
44872;BME280;30602;51.060;17.226;2023-07-20T00:49:43;100979.73;;;17.28;98.07
44872;BME280;30602;51.060;17.226;2023-07-20T00:54:15;100962.51;;;17.29;97.48
44872;BME280;30602;51.060;17.226;2023-07-20T00:58:01;100933.13;;;17.22;99.08
44872;BME280;30602;51.060;17.226;2023-07-20T01:01:44;100928.76;;;17.09;99.94
44872;BME280;30602;51.060;17.226;2023-07-20T01:05:11;100925.26;;;16.98;100.00
44872;BME280;30602;51.060;17.226;2023-07-20T01:09:18;100913.47;;;16.95;100.00
44872;BME280;30602;51.060;17.226;2023-07-20T01:13:25;100921.89;;;16.89;100.00
44872;BME280;30602;51.060;17.226;2023-07-20T01:17:01;100933.06;;;16.89;100.00
44872;BME280;30602;51.060;17.226;2023-07-20T01:20:28;100927.33;;;16.78;100.00
44872;BME280;30602;51.060;17.226;2023-07-20T01:32:09;100953.21;;;16.62;100.00
44872;BME280;30602;51.060;17.226;2023-07-20T01:35:32;100958.09;;;16.71;100.00
44872;BME280;30602;51.060;17.226;2023-07-20T01:39:23;100941.61;;;16.71;100.00
44872;BME280;30602;51.060;17.226;2023-07-20T01:43:19;100945.46;;;16.68;100.00
44872;BME280;30602;51.060;17.226;2023-07-20T01:47:16;100937.80;;;16.62;100.00
44872;BME280;30602;51.060;17.226;2023-07-20T01:50:48;100939.08;;;16.56;100.00
44872;BME280;30602;51.060;17.226;2023-07-20T01:54:29;100932.33;;;16.37;100.00
44872;BME280;30602;51.060;17.226;2023-07-20T01:57:51;100929.95;;;16.37;100.00
44872;BME280;30602;51.060;17.226;2023-07-20T02:01:26;100922.27;;;16.24;100.00
44872;BME280;30602;51.060;17.226;2023-07-20T02:05:36;100917.88;;;16.18;100.00
44872;BME280;30602;51.060;17.226;2023-07-20T02:09:18;100921.57;;;16.11;100.00
44872;BME280;30602;51.060;17.226;2023-07-20T02:13:02;100923.33;;;16.05;100.00
44872;BME280;30602;51.060;17.226;2023-07-20T02:17:00;100925.16;;;15.98;100.00
44872;BME280;30602;51.060;17.226;2023-07-20T02:20:40;100928.22;;;15.99;100.00
44872;BME280;30602;51.060;17.226;2023-07-20T02:24:13;100927.88;;;15.97;100.00
44872;BME280;30602;51.060;17.226;2023-07-20T02:28:05;100933.22;;;15.97;100.00
44872;BME280;30602;51.060;17.226;2023-07-20T02:32:16;100932.73;;;15.92;100.00
44872;BME280;30602;51.060;17.226;2023-07-20T02:36:22;100934.01;;;15.85;100.00
44872;BME280;30602;51.060;17.226;2023-07-20T02:40:11;100934.55;;;15.80;100.00
44872;BME280;30602;51.060;17.226;2023-07-20T02:43:53;100932.72;;;15.71;100.00
44872;BME280;30602;51.060;17.226;2023-07-20T02:47:44;100942.55;;;15.82;100.00
44872;BME280;30602;51.060;17.226;2023-07-20T02:51:31;100945.28;;;15.90;100.00
44872;BME280;30602;51.060;17.226;2023-07-20T02:55:28;100947.59;;;15.85;100.00
44872;BME280;30602;51.060;17.226;2023-07-20T02:59:54;100948.14;;;15.90;100.00
44872;BME280;30602;51.060;17.226;2023-07-20T03:03:42;100944.41;;;15.89;100.00
44872;BME280;30602;51.060;17.226;2023-07-20T03:08:02;100939.68;;;15.78;100.00
44872;BME280;30602;51.060;17.226;2023-07-20T03:12:17;100933.12;;;15.77;100.00
44872;BME280;30602;51.060;17.226;2023-07-20T03:16:33;100939.45;;;15.78;100.00
44872;BME280;30602;51.060;17.226;2023-07-20T03:20:13;100935.02;;;15.70;100.00
44872;BME280;30602;51.060;17.226;2023-07-20T03:24:49;100944.08;;;15.74;100.00
44872;BME280;30602;51.060;17.226;2023-07-20T03:28:41;100945.34;;;15.76;100.00
44872;BME280;30602;51.060;17.226;2023-07-20T03:32:25;100948.26;;;15.78;100.00
44872;BME280;30602;51.060;17.226;2023-07-20T03:35:58;100949.65;;;15.81;100.00
44872;BME280;30602;51.060;17.226;2023-07-20T03:40:08;100950.44;;;15.97;100.00
44872;BME280;30602;51.060;17.226;2023-07-20T03:48:24;100955.40;;;15.96;100.00
44872;BME280;30602;51.060;17.226;2023-07-20T03:52:06;100953.98;;;15.92;100.00
44872;BME280;30602;51.060;17.226;2023-07-20T03:55:57;100952.62;;;15.86;100.00
44872;BME280;30602;51.060;17.226;2023-07-20T03:59:45;100943.62;;;15.80;100.00
44872;BME280;30602;51.060;17.226;2023-07-20T04:03:48;100950.42;;;16.00;100.00
44872;BME280;30602;51.060;17.226;2023-07-20T04:19:48;100948.51;;;15.94;100.00
44872;BME280;30602;51.060;17.226;2023-07-20T04:23:34;100950.22;;;16.00;100.00
44872;BME280;30602;51.060;17.226;2023-07-20T04:27:05;100958.16;;;16.25;100.00
44872;BME280;30602;51.060;17.226;2023-07-20T04:30:33;100958.10;;;16.45;100.00
44872;BME280;30602;51.060;17.226;2023-07-20T04:34:45;100970.43;;;16.50;100.00
44872;BME280;30602;51.060;17.226;2023-07-20T04:38:32;100964.31;;;16.62;100.00
44872;BME280;30602;51.060;17.226;2023-07-20T04:42:27;100968.48;;;16.68;100.00
44872;BME280;30602;51.060;17.226;2023-07-20T04:46:07;100968.66;;;16.80;100.00
44872;BME280;30602;51.060;17.226;2023-07-20T04:50:14;100966.76;;;16.90;100.00
44872;BME280;30602;51.060;17.226;2023-07-20T04:53:50;100968.63;;;17.04;100.00
44872;BME280;30602;51.060;17.226;2023-07-20T04:57:55;100967.35;;;16.90;100.00
44872;BME280;30602;51.060;17.226;2023-07-20T05:01:24;100984.96;;;16.94;100.00
44872;BME280;30602;51.060;17.226;2023-07-20T05:05:08;100990.87;;;16.91;100.00
44872;BME280;30602;51.060;17.226;2023-07-20T05:09:13;100999.21;;;16.85;100.00
44872;BME280;30602;51.060;17.226;2023-07-20T05:13:06;101000.63;;;16.81;100.00
44872;BME280;30602;51.060;17.226;2023-07-20T05:16:34;100998.33;;;17.02;100.00
44872;BME280;30602;51.060;17.226;2023-07-20T05:20:17;100996.99;;;17.09;100.00
44872;BME280;30602;51.060;17.226;2023-07-20T05:24:11;101003.37;;;17.22;100.00
44872;BME280;30602;51.060;17.226;2023-07-20T05:28:00;101017.37;;;17.24;100.00
44872;BME280;30602;51.060;17.226;2023-07-20T05:31:37;101023.57;;;17.19;100.00
44872;BME280;30602;51.060;17.226;2023-07-20T05:35:04;101030.09;;;17.20;100.00
44872;BME280;30602;51.060;17.226;2023-07-20T05:39:22;101024.49;;;17.34;100.00
44872;BME280;30602;51.060;17.226;2023-07-20T05:43:41;101028.80;;;17.52;100.00
44872;BME280;30602;51.060;17.226;2023-07-20T05:47:22;101029.92;;;17.58;100.00
44872;BME280;30602;51.060;17.226;2023-07-20T05:55:51;101037.25;;;17.49;100.00
44872;BME280;30602;51.060;17.226;2023-07-20T05:59:43;101030.45;;;17.43;100.00
44872;BME280;30602;51.060;17.226;2023-07-20T06:03:21;101030.53;;;17.54;100.00
44872;BME280;30602;51.060;17.226;2023-07-20T06:06:43;101025.84;;;17.62;100.00
44872;BME280;30602;51.060;17.226;2023-07-20T06:10:11;101014.22;;;17.52;100.00
44872;BME280;30602;51.060;17.226;2023-07-20T06:14:46;101020.78;;;17.47;100.00
44872;BME280;30602;51.060;17.226;2023-07-20T06:18:06;101031.13;;;17.60;100.00
44872;BME280;30602;51.060;17.226;2023-07-20T06:21:43;101040.60;;;17.53;100.00
44872;BME280;30602;51.060;17.226;2023-07-20T06:25:09;101047.60;;;17.49;100.00
44872;BME280;30602;51.060;17.226;2023-07-20T06:28:35;101046.84;;;17.63;100.00
44872;BME280;30602;51.060;17.226;2023-07-20T06:32:20;101044.56;;;17.86;100.00
44872;BME280;30602;51.060;17.226;2023-07-20T06:36:06;101037.29;;;18.11;99.69
44872;BME280;30602;51.060;17.226;2023-07-20T06:39:36;101039.77;;;18.19;96.56
44872;BME280;30602;51.060;17.226;2023-07-20T06:44:10;101041.83;;;18.15;96.35
44872;BME280;30602;51.060;17.226;2023-07-20T06:47:53;101048.66;;;18.37;97.32
44872;BME280;30602;51.060;17.226;2023-07-20T06:51:22;101053.81;;;18.60;95.08
44872;BME280;30602;51.060;17.226;2023-07-20T06:54:52;101055.50;;;18.58;92.54
44872;BME280;30602;51.060;17.226;2023-07-20T06:58:43;101060.09;;;18.62;92.70
44872;BME280;30602;51.060;17.226;2023-07-20T07:02:19;101060.36;;;18.71;93.79
44872;BME280;30602;51.060;17.226;2023-07-20T07:05:39;101063.24;;;18.84;92.91
44872;BME280;30602;51.060;17.226;2023-07-20T07:10:13;101057.55;;;19.08;91.40
44872;BME280;30602;51.060;17.226;2023-07-20T07:13:36;101053.08;;;19.16;88.89
44872;BME280;30602;51.060;17.226;2023-07-20T07:17:21;101053.87;;;19.35;86.88
44872;BME280;30602;51.060;17.226;2023-07-20T07:20:52;101051.74;;;19.43;84.13
44872;BME280;30602;51.060;17.226;2023-07-20T07:24:55;101057.27;;;19.38;83.78
44872;BME280;30602;51.060;17.226;2023-07-20T07:28:54;101064.07;;;19.61;84.75
44872;BME280;30602;51.060;17.226;2023-07-20T07:33:24;101059.63;;;19.52;85.01
44872;BME280;30602;51.060;17.226;2023-07-20T07:36:49;101055.80;;;19.42;82.81
44872;BME280;30602;51.060;17.226;2023-07-20T07:41:04;101056.29;;;19.47;82.48
44872;BME280;30602;51.060;17.226;2023-07-20T07:44:45;101054.70;;;19.74;85.39
44872;BME280;30602;51.060;17.226;2023-07-20T07:48:21;101060.51;;;19.61;84.09
44872;BME280;30602;51.060;17.226;2023-07-20T07:52:55;101057.80;;;19.84;83.06
44872;BME280;30602;51.060;17.226;2023-07-20T07:56:18;101062.83;;;20.22;80.30
44872;BME280;30602;51.060;17.226;2023-07-20T08:00:17;101064.07;;;20.07;80.11
44872;BME280;30602;51.060;17.226;2023-07-20T08:04:35;101063.80;;;20.09;79.23
44872;BME280;30602;51.060;17.226;2023-07-20T08:09:17;101063.72;;;20.09;78.73
44872;BME280;30602;51.060;17.226;2023-07-20T08:13:02;101067.35;;;20.46;79.11
44872;BME280;30602;51.060;17.226;2023-07-20T08:16:39;101071.94;;;20.28;77.85
44872;BME280;30602;51.060;17.226;2023-07-20T08:20:26;101075.82;;;20.06;79.03
44872;BME280;30602;51.060;17.226;2023-07-20T08:24:40;101076.02;;;19.73;79.03
44872;BME280;30602;51.060;17.226;2023-07-20T08:32:52;101084.02;;;19.65;80.47
44872;BME280;30602;51.060;17.226;2023-07-20T08:36:16;101081.47;;;19.67;81.16
44872;BME280;30602;51.060;17.226;2023-07-20T08:39:43;101076.63;;;19.85;77.06
44872;BME280;30602;51.060;17.226;2023-07-20T08:43:59;101068.67;;;20.18;77.27
44872;BME280;30602;51.060;17.226;2023-07-20T08:47:34;101071.66;;;20.63;76.12
44872;BME280;30602;51.060;17.226;2023-07-20T08:51:16;101069.02;;;20.59;71.47
44872;BME280;30602;51.060;17.226;2023-07-20T08:54:39;101071.00;;;20.57;71.70
44872;BME280;30602;51.060;17.226;2023-07-20T08:58:12;101070.11;;;20.64;74.54
44872;BME280;30602;51.060;17.226;2023-07-20T09:02:35;101080.09;;;20.53;72.94
44872;BME280;30602;51.060;17.226;2023-07-20T09:06:39;101086.31;;;20.24;75.71
44872;BME280;30602;51.060;17.226;2023-07-20T09:10:33;101080.27;;;19.80;82.67
44872;BME280;30602;51.060;17.226;2023-07-20T09:14:07;101084.59;;;19.51;85.37
44872;BME280;30602;51.060;17.226;2023-07-20T09:17:50;101082.56;;;19.61;88.30
44872;BME280;30602;51.060;17.226;2023-07-20T09:21:37;101082.32;;;19.96;87.82
44872;BME280;30602;51.060;17.226;2023-07-20T09:26:12;101081.83;;;20.09;81.32
44872;BME280;30602;51.060;17.226;2023-07-20T09:29:48;101073.29;;;20.48;80.77
44872;BME280;30602;51.060;17.226;2023-07-20T09:34:18;101051.60;;;20.77;79.68
44872;BME280;30602;51.060;17.226;2023-07-20T09:38:15;101068.91;;;20.96;74.84
44872;BME280;30602;51.060;17.226;2023-07-20T09:42:13;101079.29;;;20.70;72.74
44872;BME280;30602;51.060;17.226;2023-07-20T09:50:33;101080.28;;;20.19;80.85
44872;BME280;30602;51.060;17.226;2023-07-20T09:54:04;101081.83;;;20.20;77.50
44872;BME280;30602;51.060;17.226;2023-07-20T09:57:25;101075.45;;;20.37;77.22
44872;BME280;30602;51.060;17.226;2023-07-20T10:01:21;101076.74;;;20.45;74.45
44872;BME280;30602;51.060;17.226;2023-07-20T10:05:08;101062.48;;;20.77;74.40
44872;BME280;30602;51.060;17.226;2023-07-20T10:09:02;101059.05;;;21.08;70.82
44872;BME280;30602;51.060;17.226;2023-07-20T10:13:01;101056.81;;;21.22;69.10
44872;BME280;30602;51.060;17.226;2023-07-20T10:16:55;101051.13;;;21.32;69.30
44872;BME280;30602;51.060;17.226;2023-07-20T10:20:26;101050.45;;;21.31;66.04
44872;BME280;30602;51.060;17.226;2023-07-20T10:24:49;101046.22;;;21.47;64.78
44872;BME280;30602;51.060;17.226;2023-07-20T10:28:35;101044.79;;;21.70;63.26
44872;BME280;30602;51.060;17.226;2023-07-20T10:32:31;101045.80;;;21.82;59.39
44872;BME280;30602;51.060;17.226;2023-07-20T10:40:41;101040.56;;;21.80;59.66
44872;BME280;30602;51.060;17.226;2023-07-20T10:56:22;101025.20;;;22.46;57.65
44872;BME280;30602;51.060;17.226;2023-07-20T11:04:00;101007.70;;;22.79;52.78
44872;BME280;30602;51.060;17.226;2023-07-20T11:07:38;101010.37;;;22.83;53.74
44872;BME280;30602;51.060;17.226;2023-07-20T11:11:34;101009.11;;;22.78;53.61
44872;BME280;30602;51.060;17.226;2023-07-20T11:19:56;100998.43;;;22.98;55.10
44872;BME280;30602;51.060;17.226;2023-07-20T11:23:20;100993.05;;;23.41;56.03
44872;BME280;30602;51.060;17.226;2023-07-20T11:27:10;100991.20;;;23.36;52.42
44872;BME280;30602;51.060;17.226;2023-07-20T11:31:05;101002.48;;;23.33;50.69
44872;BME280;30602;51.060;17.226;2023-07-20T11:34:47;100992.03;;;23.24;51.08
44872;BME280;30602;51.060;17.226;2023-07-20T11:38:24;100984.73;;;23.24;50.60
44872;BME280;30602;51.060;17.226;2023-07-20T11:42:09;100991.45;;;23.69;53.16
44872;BME280;30602;51.060;17.226;2023-07-20T11:45:47;100990.34;;;23.68;50.51
44872;BME280;30602;51.060;17.226;2023-07-20T11:49:39;101001.77;;;23.47;50.58
44872;BME280;30602;51.060;17.226;2023-07-20T11:53:37;101025.79;;;22.51;55.66
44872;BME280;30602;51.060;17.226;2023-07-20T11:57:33;101038.00;;;21.72;58.76
44872;BME280;30602;51.060;17.226;2023-07-20T12:00:56;101049.78;;;20.98;63.33
44872;BME280;30602;51.060;17.226;2023-07-20T12:05:13;101079.11;;;20.28;71.24
44872;BME280;30602;51.060;17.226;2023-07-20T12:09:14;101096.05;;;19.43;78.58
44872;BME280;30602;51.060;17.226;2023-07-20T12:13:06;101095.94;;;19.27;82.09
44872;BME280;30602;51.060;17.226;2023-07-20T12:17:20;101086.03;;;18.97;86.52
44872;BME280;30602;51.060;17.226;2023-07-20T12:21:36;101092.40;;;18.72;87.69
44872;BME280;30602;51.060;17.226;2023-07-20T12:25:57;101096.95;;;18.46;83.69
44872;BME280;30602;51.060;17.226;2023-07-20T12:29:51;101089.58;;;18.58;84.86
44872;BME280;30602;51.060;17.226;2023-07-20T12:33:35;101080.52;;;18.80;87.67
44872;BME280;30602;51.060;17.226;2023-07-20T12:37:28;101074.82;;;18.93;88.16
44872;BME280;30602;51.060;17.226;2023-07-20T12:40:51;101071.69;;;19.06;87.00
44872;BME280;30602;51.060;17.226;2023-07-20T12:45:09;101068.09;;;19.38;88.21
44872;BME280;30602;51.060;17.226;2023-07-20T12:48:42;101068.76;;;19.73;85.85
44872;BME280;30602;51.060;17.226;2023-07-20T12:52:22;101062.72;;;20.11;84.07
44872;BME280;30602;51.060;17.226;2023-07-20T12:56:27;101054.92;;;20.69;79.66
44872;BME280;30602;51.060;17.226;2023-07-20T13:00:14;101053.84;;;21.24;77.16
44872;BME280;30602;51.060;17.226;2023-07-20T13:04:49;101063.37;;;21.47;72.48
44872;BME280;30602;51.060;17.226;2023-07-20T13:08:43;101071.77;;;21.58;70.75
44872;BME280;30602;51.060;17.226;2023-07-20T13:13:02;101065.59;;;21.49;68.38
44872;BME280;30602;51.060;17.226;2023-07-20T13:17:01;101061.91;;;21.43;68.22
44872;BME280;30602;51.060;17.226;2023-07-20T13:20:48;101066.52;;;21.39;65.80
44872;BME280;30602;51.060;17.226;2023-07-20T13:24:46;101062.49;;;21.53;64.82
44872;BME280;30602;51.060;17.226;2023-07-20T13:32:41;101057.59;;;21.52;60.17
44872;BME280;30602;51.060;17.226;2023-07-20T13:36:12;101057.98;;;21.54;56.15
44872;BME280;30602;51.060;17.226;2023-07-20T13:39:42;101050.05;;;21.84;61.48
44872;BME280;30602;51.060;17.226;2023-07-20T13:43:47;101050.49;;;22.26;61.92
44872;BME280;30602;51.060;17.226;2023-07-20T13:47:31;101040.35;;;22.58;59.30
44872;BME280;30602;51.060;17.226;2023-07-20T13:50:55;101040.56;;;22.91;57.07
44872;BME280;30602;51.060;17.226;2023-07-20T13:55:11;101038.84;;;23.10;53.41
44872;BME280;30602;51.060;17.226;2023-07-20T13:59:42;101033.63;;;22.95;54.61
44872;BME280;30602;51.060;17.226;2023-07-20T14:04:05;101031.13;;;22.98;53.11
44872;BME280;30602;51.060;17.226;2023-07-20T14:08:17;101038.34;;;22.90;53.69
44872;BME280;30602;51.060;17.226;2023-07-20T14:12:19;101030.14;;;23.06;54.46
44872;BME280;30602;51.060;17.226;2023-07-20T14:15:43;101034.98;;;23.15;54.44
44872;BME280;30602;51.060;17.226;2023-07-20T14:19:25;101028.47;;;23.02;53.66
44872;BME280;30602;51.060;17.226;2023-07-20T14:22:51;101025.81;;;23.23;55.49
44872;BME280;30602;51.060;17.226;2023-07-20T14:26:29;101023.05;;;23.27;53.68
44872;BME280;30602;51.060;17.226;2023-07-20T14:30:27;101025.63;;;23.22;52.01
44872;BME280;30602;51.060;17.226;2023-07-20T14:34:31;101023.63;;;23.18;51.54
44872;BME280;30602;51.060;17.226;2023-07-20T14:38:10;101012.77;;;23.15;49.77
44872;BME280;30602;51.060;17.226;2023-07-20T14:41:40;101008.80;;;23.30;51.53
44872;BME280;30602;51.060;17.226;2023-07-20T14:46:20;101000.23;;;23.45;52.21
44872;BME280;30602;51.060;17.226;2023-07-20T14:50:16;101006.26;;;23.61;48.90
44872;BME280;30602;51.060;17.226;2023-07-20T14:53:46;101011.31;;;23.57;49.50
44872;BME280;30602;51.060;17.226;2023-07-20T14:57:43;101006.70;;;23.61;50.16
44872;BME280;30602;51.060;17.226;2023-07-20T15:01:54;101008.66;;;23.76;48.88
44872;BME280;30602;51.060;17.226;2023-07-20T15:05:50;101007.96;;;24.06;48.99
44872;BME280;30602;51.060;17.226;2023-07-20T15:09:48;100999.97;;;24.11;47.63
44872;BME280;30602;51.060;17.226;2023-07-20T15:13:48;101008.56;;;24.02;47.34
44872;BME280;30602;51.060;17.226;2023-07-20T15:17:48;101003.45;;;23.86;48.01
44872;BME280;30602;51.060;17.226;2023-07-20T15:21:18;101007.00;;;23.60;46.79
44872;BME280;30602;51.060;17.226;2023-07-20T15:25:09;101016.64;;;23.35;49.13
44872;BME280;30602;51.060;17.226;2023-07-20T15:29:05;101017.93;;;23.11;51.27
44872;BME280;30602;51.060;17.226;2023-07-20T15:32:30;101016.35;;;23.08;52.27
44872;BME280;30602;51.060;17.226;2023-07-20T15:36:48;101021.28;;;22.85;50.34
44872;BME280;30602;51.060;17.226;2023-07-20T15:40:33;101017.66;;;22.59;51.24
44872;BME280;30602;51.060;17.226;2023-07-20T15:44:44;101020.10;;;22.53;53.70
44872;BME280;30602;51.060;17.226;2023-07-20T15:48:30;101027.32;;;22.45;53.05
44872;BME280;30602;51.060;17.226;2023-07-20T15:52:40;101013.05;;;22.81;52.35
44872;BME280;30602;51.060;17.226;2023-07-20T15:56:59;101018.70;;;23.15;48.64
44872;BME280;30602;51.060;17.226;2023-07-20T16:09:37;101004.61;;;23.25;52.84
44872;BME280;30602;51.060;17.226;2023-07-20T16:13:40;101019.91;;;23.27;49.78
44872;BME280;30602;51.060;17.226;2023-07-20T16:17:30;101030.07;;;23.00;49.85
44872;BME280;30602;51.060;17.226;2023-07-20T16:21:17;101027.43;;;22.83;49.87
44872;BME280;30602;51.060;17.226;2023-07-20T16:25:28;101028.95;;;22.67;51.20
44872;BME280;30602;51.060;17.226;2023-07-20T16:29:14;101031.89;;;22.49;51.60
44872;BME280;30602;51.060;17.226;2023-07-20T16:32:52;101035.96;;;22.45;51.98
44872;BME280;30602;51.060;17.226;2023-07-20T16:36:20;101031.64;;;22.41;52.15
44872;BME280;30602;51.060;17.226;2023-07-20T16:39:59;101028.41;;;22.57;51.83
44872;BME280;30602;51.060;17.226;2023-07-20T16:44:09;101021.71;;;22.53;52.10
44872;BME280;30602;51.060;17.226;2023-07-20T16:47:40;101027.36;;;22.35;51.45
44872;BME280;30602;51.060;17.226;2023-07-20T16:51:25;101031.58;;;22.28;51.73
44872;BME280;30602;51.060;17.226;2023-07-20T16:55:25;101032.06;;;22.12;51.08
44872;BME280;30602;51.060;17.226;2023-07-20T16:59:34;101033.41;;;22.13;51.90
44872;BME280;30602;51.060;17.226;2023-07-20T17:03:35;101033.92;;;22.03;52.62
44872;BME280;30602;51.060;17.226;2023-07-20T17:07:44;101034.80;;;22.09;52.01
44872;BME280;30602;51.060;17.226;2023-07-20T17:12:24;101033.91;;;22.23;52.39
44872;BME280;30602;51.060;17.226;2023-07-20T17:17:16;101036.04;;;22.19;51.45
44872;BME280;30602;51.060;17.226;2023-07-20T17:21:05;101029.25;;;22.14;51.78
44872;BME280;30602;51.060;17.226;2023-07-20T17:24:47;101030.91;;;22.11;51.13
44872;BME280;30602;51.060;17.226;2023-07-20T17:28:48;101032.73;;;22.12;51.56
44872;BME280;30602;51.060;17.226;2023-07-20T17:33:16;101030.20;;;22.19;50.83
44872;BME280;30602;51.060;17.226;2023-07-20T17:36:39;101032.61;;;22.27;50.98
44872;BME280;30602;51.060;17.226;2023-07-20T17:40:11;101028.91;;;22.18;51.24
44872;BME280;30602;51.060;17.226;2023-07-20T17:47:37;101036.73;;;21.88;52.19
44872;BME280;30602;51.060;17.226;2023-07-20T17:51:59;101040.61;;;21.75;52.76
44872;BME280;30602;51.060;17.226;2023-07-20T17:55:50;101040.68;;;21.67;53.86
44872;BME280;30602;51.060;17.226;2023-07-20T17:59:53;101041.77;;;21.58;54.02
44872;BME280;30602;51.060;17.226;2023-07-20T18:03:35;101041.45;;;21.52;53.85
44872;BME280;30602;51.060;17.226;2023-07-20T18:07:21;101047.19;;;21.46;56.33
44872;BME280;30602;51.060;17.226;2023-07-20T18:11:10;101046.53;;;21.39;54.68
44872;BME280;30602;51.060;17.226;2023-07-20T18:14:47;101045.29;;;21.35;58.33
44872;BME280;30602;51.060;17.226;2023-07-20T18:19:32;101045.88;;;21.30;58.69
44872;BME280;30602;51.060;17.226;2023-07-20T18:23:24;101056.58;;;21.48;55.69
44872;BME280;30602;51.060;17.226;2023-07-20T18:27:17;101058.60;;;21.37;55.06
44872;BME280;30602;51.060;17.226;2023-07-20T18:31:06;101066.01;;;21.29;53.96
44872;BME280;30602;51.060;17.226;2023-07-20T18:34:46;101070.35;;;21.22;54.73
44872;BME280;30602;51.060;17.226;2023-07-20T18:38:16;101074.34;;;21.19;54.73
44872;BME280;30602;51.060;17.226;2023-07-20T18:42:38;101075.02;;;21.15;54.16
44872;BME280;30602;51.060;17.226;2023-07-20T18:46:46;101076.18;;;21.15;54.21
44872;BME280;30602;51.060;17.226;2023-07-20T18:51:05;101077.30;;;21.16;53.87
44872;BME280;30602;51.060;17.226;2023-07-20T18:54:32;101078.23;;;21.08;54.43
44872;BME280;30602;51.060;17.226;2023-07-20T19:03:17;101086.12;;;20.80;55.36
44872;BME280;30602;51.060;17.226;2023-07-20T19:07:17;101092.62;;;20.83;55.90
44872;BME280;30602;51.060;17.226;2023-07-20T19:11:57;101089.16;;;20.72;57.34
44872;BME280;30602;51.060;17.226;2023-07-20T19:15:40;101111.09;;;20.68;57.49
44872;BME280;30602;51.060;17.226;2023-07-20T19:19:28;101116.70;;;20.62;58.21
44872;BME280;30602;51.060;17.226;2023-07-20T19:23:38;101118.30;;;20.49;58.46
44872;BME280;30602;51.060;17.226;2023-07-20T19:27:59;101122.37;;;20.35;59.80
44872;BME280;30602;51.060;17.226;2023-07-20T19:31:49;101131.67;;;20.34;59.61
44872;BME280;30602;51.060;17.226;2023-07-20T19:36:10;101139.05;;;20.34;61.09
44872;BME280;30602;51.060;17.226;2023-07-20T19:39:43;101142.75;;;20.29;59.62
44872;BME280;30602;51.060;17.226;2023-07-20T19:43:15;101144.51;;;20.23;60.08
44872;BME280;30602;51.060;17.226;2023-07-20T19:47:04;101148.07;;;20.09;60.84
44872;BME280;30602;51.060;17.226;2023-07-20T19:50:51;101148.65;;;20.07;61.04
44872;BME280;30602;51.060;17.226;2023-07-20T19:54:33;101155.16;;;20.04;62.38
44872;BME280;30602;51.060;17.226;2023-07-20T19:58:37;101160.66;;;20.16;61.46
44872;BME280;30602;51.060;17.226;2023-07-20T20:02:21;101158.80;;;20.04;61.27
44872;BME280;30602;51.060;17.226;2023-07-20T20:06:09;101163.99;;;19.90;62.66
44872;BME280;30602;51.060;17.226;2023-07-20T20:09:38;101169.07;;;19.81;62.29
44872;BME280;30602;51.060;17.226;2023-07-20T20:13:52;101166.17;;;19.72;63.10
44872;BME280;30602;51.060;17.226;2023-07-20T20:17:39;101164.27;;;19.63;63.08
44872;BME280;30602;51.060;17.226;2023-07-20T20:21:30;101167.97;;;19.59;63.69
44872;BME280;30602;51.060;17.226;2023-07-20T20:25:00;101167.19;;;19.49;64.15
44872;BME280;30602;51.060;17.226;2023-07-20T20:29:09;101166.01;;;19.45;66.43
44872;BME280;30602;51.060;17.226;2023-07-20T20:32:51;101168.80;;;19.27;67.24
44872;BME280;30602;51.060;17.226;2023-07-20T20:36:37;101169.28;;;19.12;69.42
44872;BME280;30602;51.060;17.226;2023-07-20T20:41:21;101166.81;;;19.07;70.86
44872;BME280;30602;51.060;17.226;2023-07-20T20:45:00;101164.30;;;18.93;72.33
44872;BME280;30602;51.060;17.226;2023-07-20T20:49:15;101174.35;;;18.86;74.24
44872;BME280;30602;51.060;17.226;2023-07-20T20:52:39;101179.98;;;18.83;74.92
44872;BME280;30602;51.060;17.226;2023-07-20T20:56:35;101178.55;;;18.70;74.92
44872;BME280;30602;51.060;17.226;2023-07-20T21:00:04;101181.73;;;18.61;76.85
44872;BME280;30602;51.060;17.226;2023-07-20T21:03:54;101180.30;;;18.55;76.75
44872;BME280;30602;51.060;17.226;2023-07-20T21:08:16;101181.88;;;18.55;75.82
44872;BME280;30602;51.060;17.226;2023-07-20T21:12:12;101180.83;;;18.56;76.60
44872;BME280;30602;51.060;17.226;2023-07-20T21:16:30;101183.91;;;18.47;79.14
44872;BME280;30602;51.060;17.226;2023-07-20T21:20:20;101180.78;;;18.33;79.44